createdAt,value
2019-02-24T00:00:13.868Z,2.53
2019-02-24T00:01:17.994Z,2.53
2019-02-24T00:02:22.122Z,2.53
2019-02-24T00:03:26.354Z,2.52
2019-02-24T00:04:30.522Z,2.52
2019-02-24T00:05:34.698Z,2.51
2019-02-24T00:06:38.871Z,2.50
2019-02-24T00:07:42.920Z,2.50
2019-02-24T00:08:47.028Z,2.49
2019-02-24T00:09:51.275Z,2.50
2019-02-24T00:10:55.381Z,2.52
2019-02-24T00:11:59.594Z,2.52
2019-02-24T00:13:03.698Z,2.52
2019-02-24T00:14:07.818Z,2.52
2019-02-24T00:15:12.073Z,2.52
2019-02-24T00:16:16.221Z,2.51
2019-02-24T00:17:20.344Z,2.51
2019-02-24T00:18:24.425Z,2.50
2019-02-24T00:19:28.581Z,2.50
2019-02-24T00:20:32.707Z,2.51
2019-02-24T00:21:36.835Z,2.51
2019-02-24T00:22:40.925Z,2.51
2019-02-24T00:23:45.070Z,2.50
2019-02-24T00:24:49.338Z,2.49
2019-02-24T00:25:53.542Z,2.48
2019-02-24T00:27:00.701Z,2.46
2019-02-24T00:28:07.200Z,2.44
2019-02-24T00:29:08.045Z,2.43
2019-02-24T00:30:12.155Z,2.42
2019-02-24T00:31:16.347Z,2.41
2019-02-24T00:32:20.433Z,2.37
2019-02-24T00:33:24.651Z,2.32
2019-02-24T00:34:28.689Z,2.28
2019-02-24T00:35:32.827Z,2.25
2019-02-24T00:36:36.976Z,2.23
2019-02-24T00:37:41.107Z,2.21
2019-02-24T00:38:45.342Z,2.20
2019-02-24T00:39:49.498Z,2.20
2019-02-24T00:40:53.527Z,2.21
2019-02-24T00:41:57.656Z,2.21
2019-02-24T00:43:01.913Z,2.22
2019-02-24T00:44:05.975Z,2.24
2019-02-24T00:45:10.190Z,2.28
2019-02-24T00:46:14.354Z,2.32
2019-02-24T00:47:18.433Z,2.36
2019-02-24T00:48:22.562Z,2.38
2019-02-24T00:49:26.792Z,2.40
2019-02-24T00:50:31.006Z,2.41
2019-02-24T00:51:35.105Z,2.42
2019-02-24T00:52:39.218Z,2.42
2019-02-24T00:53:43.392Z,2.41
2019-02-24T00:54:47.521Z,2.40
2019-02-24T00:55:51.747Z,2.40
2019-02-24T00:56:55.958Z,2.39
2019-02-24T00:58:00.024Z,2.38
2019-02-24T00:59:04.244Z,2.38
2019-02-24T01:00:08.431Z,2.36
2019-02-24T01:01:12.593Z,2.35
2019-02-24T01:02:16.701Z,2.33
2019-02-24T01:03:20.799Z,2.31
2019-02-24T01:04:24.930Z,2.30
2019-02-24T01:05:29.154Z,2.30
2019-02-24T01:06:33.338Z,2.29
2019-02-24T01:07:37.551Z,2.27
2019-02-24T01:08:41.692Z,2.24
2019-02-24T01:09:45.886Z,2.23
2019-02-24T01:10:49.952Z,2.21
2019-02-24T01:11:54.239Z,2.19
2019-02-24T01:12:58.412Z,2.17
2019-02-24T01:14:02.573Z,2.15
2019-02-24T01:15:06.659Z,2.14
2019-02-24T01:16:10.809Z,2.15
2019-02-24T01:17:15.043Z,2.16
2019-02-24T01:18:19.102Z,2.17
2019-02-24T01:19:23.340Z,2.17
2019-02-24T01:20:27.424Z,2.18
2019-02-24T01:21:31.671Z,2.18
2019-02-24T01:22:35.873Z,2.17
2019-02-24T01:23:40.047Z,2.16
2019-02-24T01:24:44.049Z,2.14
2019-02-24T01:25:48.212Z,2.14
2019-02-24T01:26:52.458Z,2.13
2019-02-24T01:27:56.562Z,2.12
2019-02-24T01:29:00.726Z,2.11
2019-02-24T01:30:04.887Z,2.12
2019-02-24T01:31:09.026Z,2.14
2019-02-24T01:32:13.158Z,2.16
2019-02-24T01:33:17.359Z,2.17
2019-02-24T01:34:21.494Z,2.18
2019-02-24T01:35:25.521Z,2.18
2019-02-24T01:36:29.673Z,2.18
2019-02-24T01:37:33.843Z,2.16
2019-02-24T01:38:38.018Z,2.15
2019-02-24T01:39:42.202Z,2.13
2019-02-24T01:40:46.375Z,2.13
2019-02-24T01:41:50.469Z,2.13
2019-02-24T01:42:54.709Z,2.12
2019-02-24T01:43:58.863Z,2.12
2019-02-24T01:45:03.009Z,2.11
2019-02-24T01:46:07.096Z,2.10
2019-02-24T01:47:11.343Z,2.10
2019-02-24T01:48:15.566Z,2.10
2019-02-24T01:49:19.652Z,2.12
2019-02-24T01:50:23.884Z,2.13
2019-02-24T01:51:27.952Z,2.13
2019-02-24T01:52:32.165Z,2.13
2019-02-24T01:53:36.237Z,2.12
2019-02-24T01:54:40.445Z,2.08
2019-02-24T01:55:44.526Z,2.01
2019-02-24T01:56:48.730Z,1.96
2019-02-24T01:57:52.817Z,1.93
2019-02-24T01:58:57.010Z,1.91
2019-02-24T02:00:01.196Z,1.91
2019-02-24T02:01:05.345Z,1.92
2019-02-24T02:02:09.504Z,1.93
2019-02-24T02:03:13.587Z,1.96
2019-02-24T02:04:17.786Z,1.99
2019-02-24T02:05:21.962Z,2.01
2019-02-24T02:06:26.180Z,2.02
2019-02-24T02:07:30.326Z,1.99
2019-02-24T02:08:34.539Z,1.94
2019-02-24T02:09:38.600Z,1.89
2019-02-24T02:10:42.661Z,1.85
2019-02-24T02:11:46.880Z,1.82
2019-02-24T02:12:51.036Z,1.81
2019-02-24T02:13:55.140Z,1.80
2019-02-24T02:14:59.245Z,1.80
2019-02-24T02:16:03.343Z,1.79
2019-02-24T02:17:07.572Z,1.80
2019-02-24T02:18:11.782Z,1.82
2019-02-24T02:19:15.871Z,1.83
2019-02-24T02:20:20.035Z,1.85
2019-02-24T02:21:24.182Z,1.85
2019-02-24T02:22:28.234Z,1.84
2019-02-24T02:23:32.465Z,1.83
2019-02-24T02:24:36.623Z,1.83
2019-02-24T02:25:40.785Z,1.83
2019-02-24T02:26:44.853Z,1.82
2019-02-24T02:27:49.062Z,1.82
2019-02-24T02:28:53.246Z,1.81
2019-02-24T02:29:57.297Z,1.81
2019-02-24T02:31:01.416Z,1.82
2019-02-24T02:32:05.684Z,1.83
2019-02-24T02:33:09.958Z,1.85
2019-02-24T02:34:14.067Z,1.88
2019-02-24T02:35:18.212Z,1.91
2019-02-24T02:36:22.373Z,1.93
2019-02-24T02:37:26.551Z,1.95
2019-02-24T02:38:30.645Z,1.96
2019-02-24T02:39:34.881Z,1.98
2019-02-24T02:40:38.922Z,2.01
2019-02-24T02:41:43.173Z,2.02
2019-02-24T02:42:47.243Z,2.03
2019-02-24T02:43:51.367Z,2.03
2019-02-24T02:44:55.576Z,2.04
2019-02-24T02:45:59.640Z,2.04
2019-02-24T02:47:03.866Z,2.03
2019-02-24T02:48:08.065Z,2.02
2019-02-24T02:49:12.167Z,2.00
2019-02-24T02:50:16.380Z,2.00
2019-02-24T02:51:20.542Z,1.99
2019-02-24T02:52:24.723Z,1.99
2019-02-24T02:53:28.825Z,1.99
2019-02-24T02:54:33.060Z,1.98
2019-02-24T02:55:37.094Z,1.97
2019-02-24T02:56:41.193Z,1.96
2019-02-24T02:57:45.431Z,1.93
2019-02-24T02:58:54.187Z,1.92
2019-02-24T02:59:53.773Z,1.91
2019-02-24T03:00:57.817Z,1.91
2019-02-24T03:02:02.036Z,1.91
2019-02-24T03:03:06.115Z,1.90
2019-02-24T03:04:10.317Z,1.88
2019-02-24T03:05:14.393Z,1.85
2019-02-24T03:06:18.598Z,1.83
2019-02-24T03:07:22.697Z,1.81
2019-02-24T03:08:26.880Z,1.80
2019-02-24T03:09:31.049Z,1.78
2019-02-24T03:10:35.218Z,1.77
2019-02-24T03:11:39.295Z,1.77
2019-02-24T03:12:43.387Z,1.76
2019-02-24T03:13:47.535Z,1.75
2019-02-24T03:14:51.694Z,1.74
2019-02-24T03:15:55.884Z,1.74
2019-02-24T03:17:00.091Z,1.75
2019-02-24T03:18:04.151Z,1.76
2019-02-24T03:19:08.190Z,1.77
2019-02-24T03:20:12.400Z,1.79
2019-02-24T03:21:16.607Z,1.81
2019-02-24T03:22:20.751Z,1.82
2019-02-24T03:23:24.833Z,1.83
2019-02-24T03:24:28.955Z,1.84
2019-02-24T03:25:33.090Z,1.84
2019-02-24T03:26:37.303Z,1.82
2019-02-24T03:27:44.393Z,1.82
2019-02-24T03:28:47.585Z,1.82
2019-02-24T03:29:51.747Z,1.83
2019-02-24T03:30:55.903Z,1.85
2019-02-24T03:31:59.937Z,1.87
2019-02-24T03:33:04.123Z,1.89
2019-02-24T03:34:08.294Z,1.91
2019-02-24T03:35:12.498Z,1.93
2019-02-24T03:36:16.686Z,1.95
2019-02-24T03:37:20.744Z,1.96
2019-02-24T03:38:24.898Z,1.97
2019-02-24T03:39:29.098Z,1.98
2019-02-24T03:40:33.269Z,2.01
2019-02-24T03:41:37.415Z,2.02
2019-02-24T03:42:41.559Z,2.03
2019-02-24T03:43:45.712Z,2.04
2019-02-24T03:44:49.857Z,2.06
2019-02-24T03:45:53.967Z,2.06
2019-02-24T03:46:58.201Z,2.08
2019-02-24T03:48:02.328Z,2.09
2019-02-24T03:49:06.474Z,2.11
2019-02-24T03:50:10.646Z,2.12
2019-02-24T03:51:14.857Z,2.12
2019-02-24T03:52:19.059Z,2.11
2019-02-24T03:53:23.238Z,2.11
2019-02-24T03:54:27.400Z,2.11
2019-02-24T03:55:31.523Z,2.13
2019-02-24T03:56:35.697Z,2.14
2019-02-24T03:57:39.896Z,2.15
2019-02-24T03:58:44.056Z,2.16
2019-02-24T03:59:48.249Z,2.13
2019-02-24T04:00:52.343Z,2.08
2019-02-24T04:01:56.546Z,2.02
2019-02-24T04:03:00.703Z,2.00
2019-02-24T04:04:04.797Z,1.99
2019-02-24T04:05:09.017Z,1.96
2019-02-24T04:06:13.108Z,1.92
2019-02-24T04:07:17.239Z,1.88
2019-02-24T04:08:21.466Z,1.86
2019-02-24T04:09:25.526Z,1.87
2019-02-24T04:10:29.644Z,1.85
2019-02-24T04:11:33.774Z,1.83
2019-02-24T04:12:37.881Z,1.81
2019-02-24T04:13:42.133Z,1.78
2019-02-24T04:14:46.277Z,1.78
2019-02-24T04:15:50.434Z,1.79
2019-02-24T04:16:54.645Z,1.81
2019-02-24T04:17:58.809Z,1.84
2019-02-24T04:19:02.973Z,1.86
2019-02-24T04:20:07.133Z,1.89
2019-02-24T04:21:11.585Z,1.87
2019-02-24T04:22:15.628Z,1.85
2019-02-24T04:23:19.800Z,1.82
2019-02-24T04:24:23.972Z,1.80
2019-02-24T04:25:28.153Z,1.80
2019-02-24T04:26:32.357Z,1.80
2019-02-24T04:27:36.440Z,1.81
2019-02-24T04:28:40.676Z,1.83
2019-02-24T04:29:44.732Z,1.85
2019-02-24T04:30:48.864Z,1.87
2019-02-24T04:31:53.083Z,1.89
2019-02-24T04:32:57.126Z,1.92
2019-02-24T04:34:01.358Z,1.94
2019-02-24T04:35:05.515Z,1.96
2019-02-24T04:36:09.709Z,1.97
2019-02-24T04:37:13.805Z,1.99
2019-02-24T04:38:18.052Z,2.01
2019-02-24T04:39:22.081Z,2.02
2019-02-24T04:40:26.298Z,2.04
2019-02-24T04:41:30.507Z,2.04
2019-02-24T04:42:34.633Z,2.05
2019-02-24T04:43:38.754Z,2.05
2019-02-24T04:44:42.965Z,2.05
2019-02-24T04:45:47.005Z,2.05
2019-02-24T04:46:51.156Z,2.03
2019-02-24T04:47:55.344Z,2.01
2019-02-24T04:48:59.408Z,1.98
2019-02-24T04:50:03.628Z,1.97
2019-02-24T04:51:07.787Z,1.97
2019-02-24T04:52:11.974Z,1.98
2019-02-24T04:53:16.173Z,1.99
2019-02-24T04:54:20.221Z,2.01
2019-02-24T04:55:24.351Z,2.01
2019-02-24T04:56:28.567Z,2.01
2019-02-24T04:57:32.755Z,2.01
2019-02-24T04:58:36.899Z,2.01
2019-02-24T04:59:40.965Z,2.00
2019-02-24T05:00:45.207Z,1.99
2019-02-24T05:01:49.390Z,1.99
2019-02-24T05:02:53.465Z,1.98
2019-02-24T05:03:57.686Z,1.96
2019-02-24T05:05:01.819Z,1.94
2019-02-24T05:06:06.007Z,1.91
2019-02-24T05:07:10.203Z,1.90
2019-02-24T05:08:14.396Z,1.88
2019-02-24T05:09:18.512Z,1.88
2019-02-24T05:10:22.583Z,1.88
2019-02-24T05:11:26.828Z,1.89
2019-02-24T05:12:31.031Z,1.88
2019-02-24T05:13:35.220Z,1.88
2019-02-24T05:14:39.377Z,1.86
2019-02-24T05:15:43.536Z,1.84
2019-02-24T05:16:47.694Z,1.81
2019-02-24T05:17:51.885Z,1.79
2019-02-24T05:18:56.004Z,1.77
2019-02-24T05:20:00.361Z,1.75
2019-02-24T05:21:04.214Z,1.72
2019-02-24T05:22:08.371Z,1.67
2019-02-24T05:23:12.466Z,1.64
2019-02-24T05:24:16.698Z,1.61
2019-02-24T05:25:20.862Z,1.61
2019-02-24T05:26:24.925Z,1.59
2019-02-24T05:27:29.033Z,1.58
2019-02-24T05:28:33.242Z,1.57
2019-02-24T05:29:45.153Z,1.56
2019-02-24T05:30:44.483Z,1.54
2019-02-24T05:31:48.530Z,1.50
2019-02-24T05:32:52.235Z,1.47
2019-02-24T05:33:56.343Z,1.44
2019-02-24T05:35:00.464Z,1.42
2019-02-24T05:36:04.655Z,1.41
2019-02-24T05:37:08.829Z,1.41
2019-02-24T05:38:12.983Z,1.41
2019-02-24T05:39:17.044Z,1.42
2019-02-24T05:40:21.217Z,1.41
2019-02-24T05:41:25.264Z,1.41
2019-02-24T05:42:29.456Z,1.41
2019-02-24T05:43:33.613Z,1.41
2019-02-24T05:44:37.765Z,1.43
2019-02-24T05:45:41.899Z,1.45
2019-02-24T05:46:46.028Z,1.48
2019-02-24T05:47:50.187Z,1.52
2019-02-24T05:48:54.332Z,1.55
2019-02-24T05:49:58.396Z,1.58
2019-02-24T05:51:02.459Z,1.60
2019-02-24T05:52:07.448Z,1.61
2019-02-24T05:53:11.134Z,1.59
2019-02-24T05:54:16.182Z,1.55
2019-02-24T05:55:19.908Z,1.52
2019-02-24T05:56:24.119Z,1.48
2019-02-24T05:57:28.152Z,1.46
2019-02-24T05:58:32.319Z,1.44
2019-02-24T05:59:36.490Z,1.40
2019-02-24T06:00:40.616Z,1.37
2019-02-24T06:01:44.746Z,1.33
2019-02-24T06:02:48.805Z,1.30
2019-02-24T06:03:53.071Z,1.31
2019-02-24T06:04:57.137Z,1.33
2019-02-24T06:06:01.326Z,1.37
2019-02-24T06:07:05.378Z,1.36
2019-02-24T06:08:09.575Z,1.36
2019-02-24T06:09:13.755Z,1.38
2019-02-24T06:10:17.790Z,1.38
2019-02-24T06:11:22.006Z,1.37
2019-02-24T06:12:26.092Z,1.38
2019-02-24T06:13:31.107Z,1.38
2019-02-24T06:14:34.952Z,1.39
2019-02-24T06:15:38.980Z,1.43
2019-02-24T06:16:43.087Z,1.47
2019-02-24T06:17:47.228Z,1.51
2019-02-24T06:18:51.369Z,1.51
2019-02-24T06:19:55.489Z,1.51
2019-02-24T06:21:00.484Z,1.53
2019-02-24T06:22:04.267Z,1.54
2019-02-24T06:23:08.356Z,1.56
2019-02-24T06:24:12.553Z,1.59
2019-02-24T06:25:16.691Z,1.63
2019-02-24T06:26:20.844Z,1.66
2019-02-24T06:27:24.940Z,1.68
2019-02-24T06:28:28.944Z,1.70
2019-02-24T06:29:33.102Z,1.71
2019-02-24T06:30:38.131Z,1.73
2019-02-24T06:31:42.731Z,1.74
2019-02-24T06:32:46.456Z,1.74
2019-02-24T06:33:50.680Z,1.74
2019-02-24T06:34:54.700Z,1.73
2019-02-24T06:35:58.787Z,1.72
2019-02-24T06:37:02.909Z,1.72
2019-02-24T06:38:07.076Z,1.73
2019-02-24T06:39:11.197Z,1.74
2019-02-24T06:40:15.292Z,1.75
2019-02-24T06:41:19.514Z,1.76
2019-02-24T06:42:23.572Z,1.77
2019-02-24T06:43:27.789Z,1.78
2019-02-24T06:44:31.874Z,1.79
2019-02-24T06:45:36.097Z,1.80
2019-02-24T06:46:40.181Z,1.80
2019-02-24T06:47:44.402Z,1.79
2019-02-24T06:48:48.583Z,1.78
2019-02-24T06:49:52.744Z,1.77
2019-02-24T06:50:56.903Z,1.76
2019-02-24T06:52:00.949Z,1.76
2019-02-24T06:53:05.057Z,1.75
2019-02-24T06:54:09.317Z,1.74
2019-02-24T06:55:13.356Z,1.74
2019-02-24T06:56:18.337Z,1.74
2019-02-24T06:57:22.042Z,1.75
2019-02-24T06:58:26.281Z,1.76
2019-02-24T06:59:30.304Z,1.78
2019-02-24T07:00:34.562Z,1.81
2019-02-24T07:01:38.685Z,1.82
2019-02-24T07:02:42.748Z,1.82
2019-02-24T07:03:46.861Z,1.82
2019-02-24T07:04:51.072Z,1.80
2019-02-24T07:05:55.099Z,1.80
2019-02-24T07:06:59.308Z,1.79
2019-02-24T07:08:04.294Z,1.80
2019-02-24T07:09:08.012Z,1.80
2019-02-24T07:10:12.127Z,1.81
2019-02-24T07:11:16.267Z,1.81
2019-02-24T07:12:20.437Z,1.83
2019-02-24T07:13:24.630Z,1.85
2019-02-24T07:14:28.807Z,1.87
2019-02-24T07:15:32.873Z,1.91
2019-02-24T07:16:37.060Z,1.95
2019-02-24T07:17:41.214Z,1.99
2019-02-24T07:18:45.381Z,2.04
2019-02-24T07:19:49.457Z,2.08
2019-02-24T07:20:53.664Z,2.13
2019-02-24T07:21:57.802Z,2.16
2019-02-24T07:23:01.968Z,2.19
2019-02-24T07:24:06.128Z,2.22
2019-02-24T07:25:10.281Z,2.24
2019-02-24T07:26:14.454Z,2.24
2019-02-24T07:27:18.580Z,2.25
2019-02-24T07:28:22.751Z,2.24
2019-02-24T07:29:26.937Z,2.23
2019-02-24T07:30:31.071Z,2.24
2019-02-24T07:31:35.141Z,2.25
2019-02-24T07:32:39.342Z,2.28
2019-02-24T07:33:43.519Z,2.32
2019-02-24T07:34:47.609Z,2.36
2019-02-24T07:35:51.757Z,2.39
2019-02-24T07:36:55.875Z,2.41
2019-02-24T07:38:00.019Z,2.43
2019-02-24T07:39:04.229Z,2.43
2019-02-24T07:40:08.406Z,2.43
2019-02-24T07:41:12.612Z,2.44
2019-02-24T07:42:16.763Z,2.47
2019-02-24T07:43:20.954Z,2.48
2019-02-24T07:44:25.138Z,2.50
2019-02-24T07:45:30.083Z,2.53
2019-02-24T07:46:33.936Z,2.56
2019-02-24T07:47:38.088Z,2.59
2019-02-24T07:48:42.213Z,2.61
2019-02-24T07:49:46.284Z,2.64
2019-02-24T07:50:50.497Z,2.66
2019-02-24T07:51:54.661Z,2.68
2019-02-24T07:52:58.847Z,2.71
2019-02-24T07:54:03.005Z,2.74
2019-02-24T07:55:07.183Z,2.77
2019-02-24T07:56:11.277Z,2.78
2019-02-24T07:57:15.729Z,2.81
2019-02-24T07:58:22.799Z,2.84
2019-02-24T07:59:26.017Z,2.87
2019-02-24T08:00:32.455Z,2.90
2019-02-24T08:01:34.260Z,2.92
2019-02-24T08:02:38.494Z,2.92
2019-02-24T08:03:42.544Z,2.94
2019-02-24T08:04:46.665Z,2.96
2019-02-24T08:05:50.887Z,2.97
2019-02-24T08:06:55.110Z,2.98
2019-02-24T08:07:59.189Z,3.01
2019-02-24T08:09:03.276Z,3.04
2019-02-24T08:10:07.388Z,3.07
2019-02-24T08:11:11.625Z,3.09
2019-02-24T08:12:15.829Z,3.12
2019-02-24T08:13:19.874Z,3.15
2019-02-24T08:14:24.082Z,3.18
2019-02-24T08:15:28.188Z,3.18
2019-02-24T08:16:32.339Z,3.19
2019-02-24T08:17:36.532Z,3.21
2019-02-24T08:18:49.032Z,3.24
2019-02-24T08:19:44.738Z,3.28
2019-02-24T08:20:48.976Z,3.29
2019-02-24T08:21:53.162Z,3.29
2019-02-24T08:22:57.307Z,3.29
2019-02-24T08:24:01.512Z,3.29
2019-02-24T08:25:05.605Z,3.29
2019-02-24T08:26:09.728Z,3.30
2019-02-24T08:27:13.978Z,3.32
2019-02-24T08:28:18.073Z,3.36
2019-02-24T08:29:22.346Z,3.38
2019-02-24T08:30:26.447Z,3.41
2019-02-24T08:31:30.662Z,3.44
2019-02-24T08:32:34.855Z,3.47
2019-02-24T08:33:39.011Z,3.50
2019-02-24T08:34:43.099Z,3.53
2019-02-24T08:35:47.217Z,3.56
2019-02-24T08:36:51.471Z,3.57
2019-02-24T08:37:55.541Z,3.58
2019-02-24T08:38:59.755Z,3.59
2019-02-24T08:40:03.874Z,3.61
2019-02-24T08:41:08.117Z,3.62
2019-02-24T08:42:12.328Z,3.63
2019-02-24T08:43:16.481Z,3.63
2019-02-24T08:44:22.171Z,3.65
2019-02-24T08:45:24.866Z,3.69
2019-02-24T08:46:28.892Z,3.72
2019-02-24T08:47:33.065Z,3.76
2019-02-24T08:48:37.303Z,3.79
2019-02-24T08:49:41.492Z,3.82
2019-02-24T08:50:45.543Z,3.85
2019-02-24T08:51:49.724Z,3.88
2019-02-24T08:52:53.948Z,3.91
2019-02-24T08:53:58.128Z,3.94
2019-02-24T08:55:02.205Z,3.97
2019-02-24T08:56:06.436Z,4.00
2019-02-24T08:57:10.578Z,4.04
2019-02-24T08:58:14.735Z,4.06
2019-02-24T08:59:18.946Z,4.09
2019-02-24T09:00:23.155Z,4.11
2019-02-24T09:01:27.155Z,4.13
2019-02-24T09:02:31.449Z,4.16
2019-02-24T09:03:35.509Z,4.19
2019-02-24T09:04:39.620Z,4.21
2019-02-24T09:05:43.814Z,4.25
2019-02-24T09:06:48.040Z,4.29
2019-02-24T09:07:52.245Z,4.33
2019-02-24T09:08:56.434Z,4.37
2019-02-24T09:10:00.649Z,4.42
2019-02-24T09:11:04.714Z,4.47
2019-02-24T09:12:08.873Z,4.51
2019-02-24T09:13:13.106Z,4.56
2019-02-24T09:14:17.245Z,4.61
2019-02-24T09:15:21.455Z,4.65
2019-02-24T09:16:25.659Z,4.69
2019-02-24T09:17:29.780Z,4.74
2019-02-24T09:18:33.977Z,4.77
2019-02-24T09:19:38.192Z,4.81
2019-02-24T09:20:42.326Z,4.85
2019-02-24T09:21:46.472Z,4.89
2019-02-24T09:22:50.587Z,4.92
2019-02-24T09:23:54.740Z,4.95
2019-02-24T09:24:58.887Z,4.97
2019-02-24T09:26:03.129Z,5.00
2019-02-24T09:27:07.329Z,5.02
2019-02-24T09:28:12.709Z,5.05
2019-02-24T09:29:16.517Z,5.08
2019-02-24T09:30:20.699Z,5.11
2019-02-24T09:31:24.823Z,5.14
2019-02-24T09:32:28.974Z,5.17
2019-02-24T09:33:33.125Z,5.20
2019-02-24T09:34:37.317Z,5.24
2019-02-24T09:35:41.531Z,5.27
2019-02-24T09:36:45.644Z,5.30
2019-02-24T09:37:49.932Z,5.34
2019-02-24T09:38:54.076Z,5.37
2019-02-24T09:39:58.230Z,5.40
2019-02-24T09:41:02.427Z,5.42
2019-02-24T09:42:06.617Z,5.46
2019-02-24T09:43:10.759Z,5.49
2019-02-24T09:44:14.899Z,5.52
2019-02-24T09:45:19.076Z,5.55
2019-02-24T09:46:23.348Z,5.58
2019-02-24T09:47:27.441Z,5.61
2019-02-24T09:48:31.617Z,5.64
2019-02-24T09:49:35.856Z,5.67
2019-02-24T09:50:40.074Z,5.71
2019-02-24T09:51:44.236Z,5.74
2019-02-24T09:52:48.476Z,5.77
2019-02-24T09:53:52.651Z,5.81
2019-02-24T09:54:56.833Z,5.85
2019-02-24T09:56:01.076Z,5.89
2019-02-24T09:57:05.283Z,5.93
2019-02-24T09:58:09.507Z,5.97
2019-02-24T09:59:13.601Z,6.01
2019-02-24T10:00:17.853Z,6.04
2019-02-24T10:01:21.937Z,6.08
2019-02-24T10:02:26.071Z,6.12
2019-02-24T10:03:30.328Z,6.16
2019-02-24T10:04:34.426Z,6.19
2019-02-24T10:05:39.105Z,6.22
2019-02-24T10:06:42.804Z,6.26
2019-02-24T10:07:47.041Z,6.29
2019-02-24T10:08:51.175Z,6.33
2019-02-24T10:09:55.337Z,6.35
2019-02-24T10:10:59.605Z,6.38
2019-02-24T10:12:03.805Z,6.41
2019-02-24T10:13:08.012Z,6.44
2019-02-24T10:14:12.261Z,6.47
2019-02-24T10:15:16.494Z,6.51
2019-02-24T10:16:20.660Z,6.53
2019-02-24T10:17:24.878Z,6.55
2019-02-24T10:18:29.107Z,6.57
2019-02-24T10:19:33.314Z,6.60
2019-02-24T10:20:37.448Z,6.62
2019-02-24T10:21:41.600Z,6.65
2019-02-24T10:22:45.871Z,6.67
2019-02-24T10:23:49.998Z,6.69
2019-02-24T10:24:54.274Z,6.73
2019-02-24T10:25:58.474Z,6.76
2019-02-24T10:27:02.679Z,6.80
2019-02-24T10:28:06.884Z,6.83
2019-02-24T10:29:11.151Z,6.87
2019-02-24T10:30:15.268Z,6.91
2019-02-24T10:31:20.187Z,6.94
2019-02-24T10:32:23.564Z,6.98
2019-02-24T10:33:27.839Z,7.02
2019-02-24T10:34:32.029Z,7.05
2019-02-24T10:35:36.167Z,7.09
2019-02-24T10:36:40.274Z,7.12
2019-02-24T10:37:44.598Z,7.14
2019-02-24T10:38:48.825Z,7.16
2019-02-24T10:39:53.045Z,7.19
2019-02-24T10:40:57.255Z,7.23
2019-02-24T10:42:01.490Z,7.27
2019-02-24T10:43:05.638Z,7.32
2019-02-24T10:44:09.877Z,7.37
2019-02-24T10:45:14.019Z,7.42
2019-02-24T10:46:18.296Z,7.47
2019-02-24T10:47:23.334Z,7.50
2019-02-24T10:48:27.254Z,7.52
2019-02-24T10:49:31.497Z,7.53
2019-02-24T10:50:35.632Z,7.51
2019-02-24T10:51:39.846Z,7.50
2019-02-24T10:52:44.123Z,7.49
2019-02-24T10:53:48.336Z,7.49
2019-02-24T10:54:52.605Z,7.51
2019-02-24T10:55:56.806Z,7.54
2019-02-24T10:57:01.043Z,7.59
2019-02-24T10:58:05.202Z,7.64
2019-02-24T10:59:09.687Z,7.70
2019-02-24T11:00:13.830Z,7.75
2019-02-24T11:01:17.960Z,7.80
2019-02-24T11:02:22.186Z,7.86
2019-02-24T11:03:29.438Z,7.90
2019-02-24T11:04:32.708Z,7.94
2019-02-24T11:05:36.833Z,7.98
2019-02-24T11:06:41.125Z,8.02
2019-02-24T11:07:45.355Z,8.06
2019-02-24T11:08:49.500Z,8.12
2019-02-24T11:09:53.826Z,8.18
2019-02-24T11:10:57.895Z,8.23
2019-02-24T11:12:02.206Z,8.29
2019-02-24T11:13:06.380Z,8.35
2019-02-24T11:14:10.624Z,8.42
2019-02-24T11:15:14.960Z,8.48
2019-02-24T11:16:19.115Z,8.55
2019-02-24T11:17:23.404Z,8.62
2019-02-24T11:18:27.465Z,8.70
2019-02-24T11:19:31.794Z,8.77
2019-02-24T11:20:35.961Z,8.83
2019-02-24T11:21:40.250Z,8.89
2019-02-24T11:22:44.509Z,8.96
2019-02-24T11:23:48.668Z,9.04
2019-02-24T11:24:52.979Z,9.12
2019-02-24T11:25:57.220Z,9.20
2019-02-24T11:27:01.374Z,9.28
2019-02-24T11:28:05.593Z,9.38
2019-02-24T11:29:09.903Z,9.49
2019-02-24T11:30:14.184Z,9.63
2019-02-24T11:31:21.453Z,9.75
2019-02-24T11:32:24.808Z,9.87
2019-02-24T11:33:29.146Z,9.99
2019-02-24T11:34:33.357Z,10.12
2019-02-24T11:35:37.673Z,10.24
2019-02-24T11:36:41.945Z,10.36
2019-02-24T11:37:46.217Z,10.48
2019-02-24T11:38:50.495Z,10.60
2019-02-24T11:39:54.801Z,10.66
2019-02-24T11:40:59.113Z,10.68
2019-02-24T11:42:03.419Z,10.72
2019-02-24T11:43:07.720Z,10.79
2019-02-24T11:44:12.007Z,10.89
2019-02-24T11:45:16.292Z,11.00
2019-02-24T11:46:20.576Z,11.07
2019-02-24T11:47:24.839Z,11.15
2019-02-24T11:48:29.090Z,11.22
2019-02-24T11:49:33.384Z,11.26
2019-02-24T11:50:37.682Z,11.33
2019-02-24T11:51:41.969Z,11.40
2019-02-24T11:52:46.271Z,11.45
2019-02-24T11:53:50.531Z,11.51
2019-02-24T11:54:54.846Z,11.52
2019-02-24T11:55:59.173Z,11.56
2019-02-24T11:57:03.415Z,11.65
2019-02-24T11:58:07.624Z,11.76
2019-02-24T11:59:11.961Z,11.88
2019-02-24T12:00:16.159Z,12.00
2019-02-24T12:01:20.511Z,12.09
2019-02-24T12:02:33.787Z,12.14
2019-02-24T12:03:29.093Z,12.20
2019-02-24T12:04:33.416Z,12.23
2019-02-24T12:05:37.708Z,12.21
2019-02-24T12:06:41.879Z,12.25
2019-02-24T12:07:46.299Z,12.32
2019-02-24T12:08:50.566Z,12.42
2019-02-24T12:09:54.762Z,12.54
2019-02-24T12:10:58.923Z,12.65
2019-02-24T12:12:03.292Z,12.66
2019-02-24T12:13:07.745Z,12.73
2019-02-24T12:14:12.011Z,12.76
2019-02-24T12:15:16.397Z,12.82
2019-02-24T12:16:20.687Z,12.75
2019-02-24T12:17:24.962Z,12.72
2019-02-24T12:18:29.222Z,12.78
2019-02-24T12:19:33.534Z,12.86
2019-02-24T12:20:37.936Z,12.97
2019-02-24T12:21:42.187Z,12.99
2019-02-24T12:22:46.515Z,13.02
2019-02-24T12:23:50.795Z,13.05
2019-02-24T12:24:55.205Z,13.14
2019-02-24T12:25:59.299Z,13.12
2019-02-24T12:27:03.726Z,13.02
2019-02-24T12:28:07.915Z,12.93
2019-02-24T12:29:12.300Z,12.83
2019-02-24T12:30:16.599Z,12.85
2019-02-24T12:31:20.881Z,12.88
2019-02-24T12:32:25.192Z,13.02
2019-02-24T12:33:29.502Z,13.19
2019-02-24T12:34:33.802Z,13.37
2019-02-24T12:35:38.248Z,13.52
2019-02-24T12:36:42.431Z,13.64
2019-02-24T12:37:46.773Z,13.67
2019-02-24T12:38:51.174Z,13.75
2019-02-24T12:39:55.587Z,13.80
2019-02-24T12:40:59.847Z,13.76
2019-02-24T12:42:04.069Z,13.66
2019-02-24T12:43:11.484Z,13.70
2019-02-24T12:44:14.997Z,13.81
2019-02-24T12:45:19.262Z,13.93
2019-02-24T12:46:23.563Z,13.98
2019-02-24T12:47:28.008Z,14.09
2019-02-24T12:48:32.288Z,14.21
2019-02-24T12:49:36.603Z,14.35
2019-02-24T12:50:40.943Z,14.46
2019-02-24T12:51:45.282Z,14.55
2019-02-24T12:52:49.621Z,14.43
2019-02-24T12:53:53.950Z,14.36
2019-02-24T12:54:58.243Z,14.25
2019-02-24T12:56:02.542Z,14.13
2019-02-24T12:57:06.999Z,14.15
2019-02-24T12:58:11.264Z,14.14
2019-02-24T12:59:15.601Z,14.23
2019-02-24T13:00:19.904Z,14.38
2019-02-24T13:01:24.206Z,14.49
2019-02-24T13:02:28.564Z,14.66
2019-02-24T13:03:32.899Z,14.82
2019-02-24T13:04:37.226Z,14.98
2019-02-24T13:05:41.547Z,15.14
2019-02-24T13:06:45.906Z,15.28
2019-02-24T13:07:50.250Z,15.42
2019-02-24T13:08:54.662Z,15.52
2019-02-24T13:09:58.941Z,15.61
2019-02-24T13:11:03.291Z,15.69
2019-02-24T13:12:07.632Z,15.76
2019-02-24T13:13:11.993Z,15.81
2019-02-24T13:14:16.302Z,15.69
2019-02-24T13:15:20.603Z,15.52
2019-02-24T13:16:24.911Z,15.51
2019-02-24T13:17:29.273Z,15.52
2019-02-24T13:18:33.608Z,15.50
2019-02-24T13:19:37.966Z,15.52
2019-02-24T13:20:42.281Z,15.39
2019-02-24T13:21:46.635Z,15.27
2019-02-24T13:22:51.009Z,15.28
2019-02-24T13:23:55.298Z,15.31
2019-02-24T13:24:59.651Z,15.28
2019-02-24T13:26:03.991Z,15.33
2019-02-24T13:27:08.285Z,15.40
2019-02-24T13:28:12.669Z,15.40
2019-02-24T13:29:16.976Z,15.46
2019-02-24T13:30:21.390Z,15.48
2019-02-24T13:31:25.705Z,15.43
2019-02-24T13:32:30.034Z,15.32
2019-02-24T13:33:34.380Z,15.36
2019-02-24T13:34:38.680Z,15.40
2019-02-24T13:35:43.010Z,15.43
2019-02-24T13:36:47.356Z,15.41
2019-02-24T13:37:51.695Z,15.33
2019-02-24T13:38:56.028Z,15.35
2019-02-24T13:40:00.348Z,15.38
2019-02-24T13:41:04.089Z,15.45
2019-02-24T13:42:08.434Z,15.51
2019-02-24T13:43:12.787Z,15.50
2019-02-24T13:44:17.149Z,15.53
2019-02-24T13:45:21.499Z,15.59
2019-02-24T13:46:25.848Z,15.63
2019-02-24T13:47:30.188Z,15.69
2019-02-24T13:48:34.551Z,15.74
2019-02-24T13:49:38.871Z,15.75
2019-02-24T13:50:43.211Z,15.68
2019-02-24T13:51:47.554Z,15.51
2019-02-24T13:52:51.894Z,15.34
2019-02-24T13:53:56.170Z,15.27
2019-02-24T13:55:00.514Z,15.23
2019-02-24T13:56:04.846Z,15.23
2019-02-24T13:57:09.149Z,15.07
2019-02-24T13:58:13.383Z,14.90
2019-02-24T13:59:17.744Z,14.87
2019-02-24T14:00:22.088Z,14.90
2019-02-24T14:01:26.439Z,14.98
2019-02-24T14:02:30.766Z,15.08
2019-02-24T14:03:35.085Z,15.09
2019-02-24T14:04:39.443Z,15.05
2019-02-24T14:05:43.810Z,14.98
2019-02-24T14:06:48.142Z,14.94
2019-02-24T14:07:52.484Z,14.94
2019-02-24T14:08:56.822Z,14.96